Escanaba, MI (49829)

6:31 PM EST on February 10, 2016 (GMT -0500)
Hurley Marine Lake Side Weather | | Change Station
CLOSE
Current Station
Personal Weather Station
Location: Escanaba, MI
Elevation: 607 ft
Nearby Weather Stations

Elev 607 ft 45.73 °N, 87.06 °W | Updated 13 seconds ago

Scattered Clouds
Scattered Clouds
11.4 °F
Feels Like -6 °F
N
18.0
Wind Variable Wind from WNW
Gusts 19.0 mph

Today
High -- | Low -- °F
--% Chance of Precip.
Yesterday
High -- | Low -- °F
Precip. -- in
Pressure 30.04 in
Visibility 10.0 miles
Clouds Scattered Clouds 4600 ft
Windchill -6 °F
Dew Point -0 °F
Humidity 59%
Rainfall 0.00 in
Snow Depth Not available.
7:58 AM 6:07 PM
Waxing Crescent, 8% visible
METAR KESC 102315Z AUTO 31009G15KT 10SM SCT046 M11/M20 A3004 RMK AO1
Pressure 30.04 in
Visibility 10.0 miles
Clouds Scattered Clouds 4600 ft
Windchill -6 °F
Dew Point -0 °F
Humidity 59%
Rainfall 0.00 in
Snow Depth Not available.
7:58 AM 6:07 PM
Waxing Crescent, 8% visible
METAR KESC 102315Z AUTO 31009G15KT 10SM SCT046 M11/M20 A3004 RMK AO1

10-Day Weather Forecast

Almanac

Astronomy

Feb. 10, 2016 Rise Set
Actual Time
Civil Twilight
Nautical Twilight
Astronomical Twilight
Moon
Length of Visible Light
Length of Day
Tomorrow will be .
, % of the Moon is Illuminated

Today's Extremes

State Highs State Lows

Community

WunderPhotos

Upload Photos

1,891,935 photos uploaded!

WunderBlog® & News

Nearby

Air Quality

  Air Quality AQ Index Pollutant
Not available.

Snow Depth

Station Depth Elevation

Earthquake Activity

City Distance Mag. Time & Date
Minimum magnitude displayed is 2.5.

Coastal Water Temperatures

Place Temperature

Stations

Nearby Weather Stations

Station Location Temp. Windchill Dew Point Humidity Wind Precip. Elev Updated Type
                   

Watches & Warnings

There are currently no watches in effect.